sensor_id;sensor_type;location;lat;lon;timestamp;P1;durP1;ratioP1;P2;durP2;ratioP2
3177;SDS011;38141;42.666;23.344;2023-04-06T00:00:49;12.83;;;9.20;;
3177;SDS011;38141;42.666;23.344;2023-04-06T00:03:17;14.50;;;8.90;;
3177;SDS011;38141;42.666;23.344;2023-04-06T00:05:44;15.70;;;9.43;;
3177;SDS011;38141;42.666;23.344;2023-04-06T00:08:11;15.37;;;9.93;;
3177;SDS011;38141;42.666;23.344;2023-04-06T00:10:37;13.37;;;9.10;;
3177;SDS011;38141;42.666;23.344;2023-04-06T00:13:04;14.23;;;8.67;;
3177;SDS011;38141;42.666;23.344;2023-04-06T00:15:33;15.97;;;8.90;;
3177;SDS011;38141;42.666;23.344;2023-04-06T00:18:00;16.07;;;10.30;;
3177;SDS011;38141;42.666;23.344;2023-04-06T00:20:26;15.43;;;9.50;;
3177;SDS011;38141;42.666;23.344;2023-04-06T00:22:53;14.47;;;9.97;;
3177;SDS011;38141;42.666;23.344;2023-04-06T00:25:20;12.97;;;9.80;;
3177;SDS011;38141;42.666;23.344;2023-04-06T00:27:47;15.00;;;9.20;;
3177;SDS011;38141;42.666;23.344;2023-04-06T00:30:14;14.30;;;9.57;;
3177;SDS011;38141;42.666;23.344;2023-04-06T00:32:42;14.70;;;9.33;;
3177;SDS011;38141;42.666;23.344;2023-04-06T00:35:09;14.90;;;9.67;;
3177;SDS011;38141;42.666;23.344;2023-04-06T00:37:36;13.27;;;8.40;;
3177;SDS011;38141;42.666;23.344;2023-04-06T00:40:03;14.53;;;10.03;;
3177;SDS011;38141;42.666;23.344;2023-04-06T00:42:30;17.23;;;10.27;;
3177;SDS011;38141;42.666;23.344;2023-04-06T00:44:57;16.23;;;10.03;;
3177;SDS011;38141;42.666;23.344;2023-04-06T00:47:26;15.07;;;9.83;;
3177;SDS011;38141;42.666;23.344;2023-04-06T00:49:54;17.30;;;10.10;;
3177;SDS011;38141;42.666;23.344;2023-04-06T00:52:21;16.53;;;9.53;;
3177;SDS011;38141;42.666;23.344;2023-04-06T00:54:48;15.57;;;9.40;;
3177;SDS011;38141;42.666;23.344;2023-04-06T00:57:16;14.00;;;8.90;;
3177;SDS011;38141;42.666;23.344;2023-04-06T00:59:43;15.87;;;9.60;;
3177;SDS011;38141;42.666;23.344;2023-04-06T01:02:10;14.53;;;8.03;;
3177;SDS011;38141;42.666;23.344;2023-04-06T01:04:37;13.50;;;8.20;;
3177;SDS011;38141;42.666;23.344;2023-04-06T01:07:05;13.43;;;9.03;;
3177;SDS011;38141;42.666;23.344;2023-04-06T01:09:32;14.90;;;9.30;;
3177;SDS011;38141;42.666;23.344;2023-04-06T01:11:59;15.33;;;8.87;;
3177;SDS011;38141;42.666;23.344;2023-04-06T01:14:26;13.10;;;8.57;;
3177;SDS011;38141;42.666;23.344;2023-04-06T01:16:53;15.50;;;8.20;;
3177;SDS011;38141;42.666;23.344;2023-04-06T01:19:20;15.30;;;8.93;;
3177;SDS011;38141;42.666;23.344;2023-04-06T01:21:48;14.57;;;8.07;;
3177;SDS011;38141;42.666;23.344;2023-04-06T01:24:19;19.47;;;9.60;;
3177;SDS011;38141;42.666;23.344;2023-04-06T01:26:46;11.90;;;8.63;;
3177;SDS011;38141;42.666;23.344;2023-04-06T01:29:13;13.97;;;8.30;;
3177;SDS011;38141;42.666;23.344;2023-04-06T01:31:40;12.87;;;8.77;;
3177;SDS011;38141;42.666;23.344;2023-04-06T01:34:06;12.73;;;8.63;;
3177;SDS011;38141;42.666;23.344;2023-04-06T01:36:33;14.50;;;8.50;;
3177;SDS011;38141;42.666;23.344;2023-04-06T01:39:00;14.20;;;8.90;;
3177;SDS011;38141;42.666;23.344;2023-04-06T01:41:28;16.27;;;8.87;;
3177;SDS011;38141;42.666;23.344;2023-04-06T01:43:55;13.07;;;8.27;;
3177;SDS011;38141;42.666;23.344;2023-04-06T01:46:22;12.37;;;8.33;;
3177;SDS011;38141;42.666;23.344;2023-04-06T01:48:49;16.03;;;9.50;;
3177;SDS011;38141;42.666;23.344;2023-04-06T01:51:15;13.80;;;8.83;;
3177;SDS011;38141;42.666;23.344;2023-04-06T01:53:45;13.03;;;8.70;;
3177;SDS011;38141;42.666;23.344;2023-04-06T01:56:13;14.00;;;8.27;;
3177;SDS011;38141;42.666;23.344;2023-04-06T01:58:41;11.87;;;8.10;;
3177;SDS011;38141;42.666;23.344;2023-04-06T02:01:08;15.90;;;9.53;;
3177;SDS011;38141;42.666;23.344;2023-04-06T02:03:35;15.63;;;9.37;;
3177;SDS011;38141;42.666;23.344;2023-04-06T02:06:02;15.17;;;9.27;;
3177;SDS011;38141;42.666;23.344;2023-04-06T02:08:29;15.03;;;8.53;;
3177;SDS011;38141;42.666;23.344;2023-04-06T02:10:55;12.67;;;8.30;;
3177;SDS011;38141;42.666;23.344;2023-04-06T02:13:22;13.53;;;7.80;;
3177;SDS011;38141;42.666;23.344;2023-04-06T02:15:50;10.67;;;7.07;;
3177;SDS011;38141;42.666;23.344;2023-04-06T02:18:17;14.33;;;8.03;;
3177;SDS011;38141;42.666;23.344;2023-04-06T02:20:44;13.70;;;8.70;;
3177;SDS011;38141;42.666;23.344;2023-04-06T02:23:11;12.40;;;7.83;;
3177;SDS011;38141;42.666;23.344;2023-04-06T02:25:38;10.20;;;7.00;;
3177;SDS011;38141;42.666;23.344;2023-04-06T02:28:05;12.50;;;8.37;;
3177;SDS011;38141;42.666;23.344;2023-04-06T02:30:32;12.67;;;7.70;;
3177;SDS011;38141;42.666;23.344;2023-04-06T02:33:00;13.17;;;8.50;;
3177;SDS011;38141;42.666;23.344;2023-04-06T02:35:28;16.00;;;7.90;;
3177;SDS011;38141;42.666;23.344;2023-04-06T02:37:55;10.40;;;8.03;;
3177;SDS011;38141;42.666;23.344;2023-04-06T02:40:22;13.63;;;8.90;;
3177;SDS011;38141;42.666;23.344;2023-04-06T02:42:49;12.80;;;8.03;;
3177;SDS011;38141;42.666;23.344;2023-04-06T02:45:16;12.97;;;7.87;;
3177;SDS011;38141;42.666;23.344;2023-04-06T02:47:43;14.33;;;8.97;;
3177;SDS011;38141;42.666;23.344;2023-04-06T02:50:11;14.93;;;7.60;;
3177;SDS011;38141;42.666;23.344;2023-04-06T02:52:38;12.67;;;7.90;;
3177;SDS011;38141;42.666;23.344;2023-04-06T02:55:05;15.33;;;8.73;;
3177;SDS011;38141;42.666;23.344;2023-04-06T02:57:33;13.37;;;7.73;;
3177;SDS011;38141;42.666;23.344;2023-04-06T02:59:59;12.20;;;8.40;;
3177;SDS011;38141;42.666;23.344;2023-04-06T03:02:26;11.53;;;8.00;;
3177;SDS011;38141;42.666;23.344;2023-04-06T03:04:53;13.83;;;8.90;;
3177;SDS011;38141;42.666;23.344;2023-04-06T03:07:21;12.50;;;8.07;;
3177;SDS011;38141;42.666;23.344;2023-04-06T03:09:48;14.43;;;8.30;;
3177;SDS011;38141;42.666;23.344;2023-04-06T03:12:15;13.50;;;8.20;;
3177;SDS011;38141;42.666;23.344;2023-04-06T03:14:42;11.07;;;8.07;;
3177;SDS011;38141;42.666;23.344;2023-04-06T03:17:09;12.87;;;7.70;;
3177;SDS011;38141;42.666;23.344;2023-04-06T03:19:35;14.87;;;7.77;;
3177;SDS011;38141;42.666;23.344;2023-04-06T03:22:02;11.73;;;7.60;;
3177;SDS011;38141;42.666;23.344;2023-04-06T03:24:30;12.77;;;8.37;;
3177;SDS011;38141;42.666;23.344;2023-04-06T03:26:57;12.03;;;8.17;;
3177;SDS011;38141;42.666;23.344;2023-04-06T03:29:25;10.60;;;7.40;;
3177;SDS011;38141;42.666;23.344;2023-04-06T03:31:52;9.77;;;7.23;;
3177;SDS011;38141;42.666;23.344;2023-04-06T03:34:18;12.50;;;7.80;;
3177;SDS011;38141;42.666;23.344;2023-04-06T03:36:46;14.77;;;8.97;;
3177;SDS011;38141;42.666;23.344;2023-04-06T03:39:15;12.33;;;8.33;;
3177;SDS011;38141;42.666;23.344;2023-04-06T03:41:43;14.03;;;8.73;;
3177;SDS011;38141;42.666;23.344;2023-04-06T03:44:10;15.83;;;9.87;;
3177;SDS011;38141;42.666;23.344;2023-04-06T03:46:37;11.23;;;7.73;;
3177;SDS011;38141;42.666;23.344;2023-04-06T03:49:04;14.10;;;7.70;;
3177;SDS011;38141;42.666;23.344;2023-04-06T03:51:33;13.63;;;8.00;;
3177;SDS011;38141;42.666;23.344;2023-04-06T03:54:00;12.33;;;7.60;;
3177;SDS011;38141;42.666;23.344;2023-04-06T03:56:27;14.47;;;8.27;;
3177;SDS011;38141;42.666;23.344;2023-04-06T03:58:55;10.70;;;6.90;;
3177;SDS011;38141;42.666;23.344;2023-04-06T04:01:22;9.47;;;6.60;;
3177;SDS011;38141;42.666;23.344;2023-04-06T04:03:49;11.60;;;7.50;;
3177;SDS011;38141;42.666;23.344;2023-04-06T04:06:17;14.43;;;7.60;;
3177;SDS011;38141;42.666;23.344;2023-04-06T04:08:45;9.17;;;6.80;;
3177;SDS011;38141;42.666;23.344;2023-04-06T04:11:12;11.67;;;7.40;;
3177;SDS011;38141;42.666;23.344;2023-04-06T04:13:40;11.90;;;7.27;;
3177;SDS011;38141;42.666;23.344;2023-04-06T04:16:08;13.23;;;7.10;;
3177;SDS011;38141;42.666;23.344;2023-04-06T04:18:35;13.33;;;7.40;;
3177;SDS011;38141;42.666;23.344;2023-04-06T04:21:01;10.67;;;6.43;;
3177;SDS011;38141;42.666;23.344;2023-04-06T04:23:28;11.27;;;7.20;;
3177;SDS011;38141;42.666;23.344;2023-04-06T04:25:57;17.27;;;7.53;;
3177;SDS011;38141;42.666;23.344;2023-04-06T04:28:24;12.00;;;7.60;;
3177;SDS011;38141;42.666;23.344;2023-04-06T04:30:50;18.00;;;8.33;;
3177;SDS011;38141;42.666;23.344;2023-04-06T04:33:19;13.10;;;8.70;;
3177;SDS011;38141;42.666;23.344;2023-04-06T04:35:45;15.03;;;8.50;;
3177;SDS011;38141;42.666;23.344;2023-04-06T04:38:12;12.70;;;8.20;;
3177;SDS011;38141;42.666;23.344;2023-04-06T04:40:39;13.93;;;8.10;;
3177;SDS011;38141;42.666;23.344;2023-04-06T04:43:06;16.43;;;10.07;;
3177;SDS011;38141;42.666;23.344;2023-04-06T04:45:33;11.37;;;8.77;;
3177;SDS011;38141;42.666;23.344;2023-04-06T04:48:00;15.80;;;9.27;;
3177;SDS011;38141;42.666;23.344;2023-04-06T04:50:28;22.67;;;9.33;;
3177;SDS011;38141;42.666;23.344;2023-04-06T04:52:55;20.80;;;13.33;;
3177;SDS011;38141;42.666;23.344;2023-04-06T04:55:22;30.20;;;16.80;;
3177;SDS011;38141;42.666;23.344;2023-04-06T04:57:48;13.83;;;8.87;;
3177;SDS011;38141;42.666;23.344;2023-04-06T05:00:16;13.70;;;8.43;;
3177;SDS011;38141;42.666;23.344;2023-04-06T05:02:43;12.90;;;8.43;;
3177;SDS011;38141;42.666;23.344;2023-04-06T05:05:10;13.20;;;8.33;;
3177;SDS011;38141;42.666;23.344;2023-04-06T05:07:38;17.83;;;9.20;;
3177;SDS011;38141;42.666;23.344;2023-04-06T05:10:07;16.43;;;9.20;;
3177;SDS011;38141;42.666;23.344;2023-04-06T05:12:34;19.33;;;9.80;;
3177;SDS011;38141;42.666;23.344;2023-04-06T05:15:01;16.70;;;9.60;;
3177;SDS011;38141;42.666;23.344;2023-04-06T05:17:28;18.07;;;10.17;;
3177;SDS011;38141;42.666;23.344;2023-04-06T05:19:56;18.70;;;9.83;;
3177;SDS011;38141;42.666;23.344;2023-04-06T05:22:23;15.90;;;9.47;;
3177;SDS011;38141;42.666;23.344;2023-04-06T05:24:52;17.90;;;10.10;;
3177;SDS011;38141;42.666;23.344;2023-04-06T05:27:19;16.93;;;10.27;;
3177;SDS011;38141;42.666;23.344;2023-04-06T05:29:46;16.70;;;9.60;;
3177;SDS011;38141;42.666;23.344;2023-04-06T05:32:13;14.87;;;9.40;;
3177;SDS011;38141;42.666;23.344;2023-04-06T05:34:41;20.33;;;10.70;;
3177;SDS011;38141;42.666;23.344;2023-04-06T05:37:08;14.50;;;8.37;;
3177;SDS011;38141;42.666;23.344;2023-04-06T05:39:35;15.93;;;9.30;;
3177;SDS011;38141;42.666;23.344;2023-04-06T05:42:05;15.37;;;9.57;;
3177;SDS011;38141;42.666;23.344;2023-04-06T05:44:32;16.83;;;10.17;;
3177;SDS011;38141;42.666;23.344;2023-04-06T05:46:59;16.63;;;9.57;;
3177;SDS011;38141;42.666;23.344;2023-04-06T05:49:26;19.03;;;10.27;;
3177;SDS011;38141;42.666;23.344;2023-04-06T05:51:54;31.13;;;15.87;;
3177;SDS011;38141;42.666;23.344;2023-04-06T05:54:21;17.53;;;11.40;;
3177;SDS011;38141;42.666;23.344;2023-04-06T05:56:50;20.30;;;11.80;;
3177;SDS011;38141;42.666;23.344;2023-04-06T05:59:18;19.37;;;10.90;;
3177;SDS011;38141;42.666;23.344;2023-04-06T06:01:45;18.07;;;10.53;;
3177;SDS011;38141;42.666;23.344;2023-04-06T06:04:12;21.70;;;12.20;;
3177;SDS011;38141;42.666;23.344;2023-04-06T06:06:39;19.20;;;10.60;;
3177;SDS011;38141;42.666;23.344;2023-04-06T06:09:11;21.20;;;11.63;;
3177;SDS011;38141;42.666;23.344;2023-04-06T06:11:38;18.33;;;11.87;;
3177;SDS011;38141;42.666;23.344;2023-04-06T06:14:06;25.73;;;14.20;;
3177;SDS011;38141;42.666;23.344;2023-04-06T06:16:34;28.10;;;13.50;;
3177;SDS011;38141;42.666;23.344;2023-04-06T06:19:01;20.80;;;11.23;;
3177;SDS011;38141;42.666;23.344;2023-04-06T06:21:28;24.93;;;12.50;;
3177;SDS011;38141;42.666;23.344;2023-04-06T06:23:55;21.70;;;13.13;;
3177;SDS011;38141;42.666;23.344;2023-04-06T06:26:22;22.00;;;12.87;;
3177;SDS011;38141;42.666;23.344;2023-04-06T06:28:49;22.00;;;12.90;;
3177;SDS011;38141;42.666;23.344;2023-04-06T06:31:17;22.20;;;12.33;;
3177;SDS011;38141;42.666;23.344;2023-04-06T06:33:47;21.03;;;12.60;;
3177;SDS011;38141;42.666;23.344;2023-04-06T06:36:16;18.43;;;12.17;;
3177;SDS011;38141;42.666;23.344;2023-04-06T06:38:43;30.50;;;16.13;;
3177;SDS011;38141;42.666;23.344;2023-04-06T06:41:10;20.00;;;11.97;;
3177;SDS011;38141;42.666;23.344;2023-04-06T06:43:37;18.63;;;11.30;;
3177;SDS011;38141;42.666;23.344;2023-04-06T06:46:04;20.70;;;11.30;;
3177;SDS011;38141;42.666;23.344;2023-04-06T06:48:31;18.37;;;11.80;;
3177;SDS011;38141;42.666;23.344;2023-04-06T06:50:59;19.33;;;12.90;;
3177;SDS011;38141;42.666;23.344;2023-04-06T06:53:26;23.57;;;12.37;;
3177;SDS011;38141;42.666;23.344;2023-04-06T06:55:53;18.30;;;12.43;;
3177;SDS011;38141;42.666;23.344;2023-04-06T06:58:21;25.60;;;16.17;;
3177;SDS011;38141;42.666;23.344;2023-04-06T07:00:47;20.00;;;11.80;;
3177;SDS011;38141;42.666;23.344;2023-04-06T07:03:14;20.73;;;12.63;;
3177;SDS011;38141;42.666;23.344;2023-04-06T07:05:44;15.40;;;10.67;;
3177;SDS011;38141;42.666;23.344;2023-04-06T07:08:15;15.33;;;10.33;;
3177;SDS011;38141;42.666;23.344;2023-04-06T07:10:42;13.10;;;10.33;;
3177;SDS011;38141;42.666;23.344;2023-04-06T07:13:09;14.77;;;10.47;;
3177;SDS011;38141;42.666;23.344;2023-04-06T07:15:36;14.60;;;10.43;;
3177;SDS011;38141;42.666;23.344;2023-04-06T07:18:03;17.63;;;11.87;;
3177;SDS011;38141;42.666;23.344;2023-04-06T07:20:30;17.27;;;10.60;;
3177;SDS011;38141;42.666;23.344;2023-04-06T07:22:56;16.10;;;10.70;;
3177;SDS011;38141;42.666;23.344;2023-04-06T07:25:25;20.00;;;11.37;;
3177;SDS011;38141;42.666;23.344;2023-04-06T07:27:52;15.73;;;10.80;;
3177;SDS011;38141;42.666;23.344;2023-04-06T07:30:18;16.77;;;11.43;;
3177;SDS011;38141;42.666;23.344;2023-04-06T07:32:47;16.33;;;11.40;;
3177;SDS011;38141;42.666;23.344;2023-04-06T07:35:14;16.23;;;11.07;;
3177;SDS011;38141;42.666;23.344;2023-04-06T07:37:41;15.50;;;11.50;;
3177;SDS011;38141;42.666;23.344;2023-04-06T07:40:08;17.20;;;10.97;;
3177;SDS011;38141;42.666;23.344;2023-04-06T07:42:37;14.60;;;9.63;;
3177;SDS011;38141;42.666;23.344;2023-04-06T07:45:04;15.07;;;9.70;;
3177;SDS011;38141;42.666;23.344;2023-04-06T07:47:32;16.07;;;10.50;;
3177;SDS011;38141;42.666;23.344;2023-04-06T07:49:59;14.60;;;10.00;;
3177;SDS011;38141;42.666;23.344;2023-04-06T07:52:26;17.50;;;11.80;;
3177;SDS011;38141;42.666;23.344;2023-04-06T07:54:53;14.27;;;10.30;;
3177;SDS011;38141;42.666;23.344;2023-04-06T07:57:20;15.20;;;10.50;;
3177;SDS011;38141;42.666;23.344;2023-04-06T07:59:48;21.63;;;11.30;;
3177;SDS011;38141;42.666;23.344;2023-04-06T08:02:15;15.43;;;11.00;;
3177;SDS011;38141;42.666;23.344;2023-04-06T08:04:42;16.27;;;11.87;;
3177;SDS011;38141;42.666;23.344;2023-04-06T08:07:09;13.70;;;10.10;;
3177;SDS011;38141;42.666;23.344;2023-04-06T08:09:35;17.50;;;11.40;;
3177;SDS011;38141;42.666;23.344;2023-04-06T08:12:02;17.67;;;10.67;;
3177;SDS011;38141;42.666;23.344;2023-04-06T08:14:29;12.47;;;9.73;;
3177;SDS011;38141;42.666;23.344;2023-04-06T08:16:57;14.80;;;11.53;;
3177;SDS011;38141;42.666;23.344;2023-04-06T08:19:24;15.90;;;9.90;;
3177;SDS011;38141;42.666;23.344;2023-04-06T08:21:51;15.53;;;10.13;;
3177;SDS011;38141;42.666;23.344;2023-04-06T08:24:18;12.80;;;9.37;;
3177;SDS011;38141;42.666;23.344;2023-04-06T08:26:45;13.13;;;9.67;;
3177;SDS011;38141;42.666;23.344;2023-04-06T08:29:11;12.57;;;9.33;;
3177;SDS011;38141;42.666;23.344;2023-04-06T08:31:38;14.17;;;9.33;;
3177;SDS011;38141;42.666;23.344;2023-04-06T08:34:06;11.87;;;8.93;;
3177;SDS011;38141;42.666;23.344;2023-04-06T08:36:33;12.07;;;9.60;;
3177;SDS011;38141;42.666;23.344;2023-04-06T08:39:00;14.00;;;10.20;;
3177;SDS011;38141;42.666;23.344;2023-04-06T08:41:27;14.50;;;10.47;;
3177;SDS011;38141;42.666;23.344;2023-04-06T08:43:56;11.90;;;9.80;;
3177;SDS011;38141;42.666;23.344;2023-04-06T08:46:25;12.10;;;9.27;;
3177;SDS011;38141;42.666;23.344;2023-04-06T08:48:54;12.57;;;10.27;;
3177;SDS011;38141;42.666;23.344;2023-04-06T08:51:23;12.23;;;9.87;;
3177;SDS011;38141;42.666;23.344;2023-04-06T08:53:51;12.40;;;8.57;;
3177;SDS011;38141;42.666;23.344;2023-04-06T08:56:19;11.43;;;9.10;;
3177;SDS011;38141;42.666;23.344;2023-04-06T08:58:47;11.70;;;8.57;;
3177;SDS011;38141;42.666;23.344;2023-04-06T09:01:14;11.20;;;9.37;;
3177;SDS011;38141;42.666;23.344;2023-04-06T09:03:44;10.40;;;8.67;;
3177;SDS011;38141;42.666;23.344;2023-04-06T09:06:12;11.43;;;8.97;;
3177;SDS011;38141;42.666;23.344;2023-04-06T09:08:41;11.90;;;10.10;;
3177;SDS011;38141;42.666;23.344;2023-04-06T09:11:08;9.50;;;8.23;;
3177;SDS011;38141;42.666;23.344;2023-04-06T09:13:45;10.73;;;8.13;;
3177;SDS011;38141;42.666;23.344;2023-04-06T09:16:13;11.93;;;8.60;;
3177;SDS011;38141;42.666;23.344;2023-04-06T09:18:40;11.00;;;8.60;;
3177;SDS011;38141;42.666;23.344;2023-04-06T09:21:08;10.50;;;8.40;;
3177;SDS011;38141;42.666;23.344;2023-04-06T09:23:35;15.03;;;9.30;;
3177;SDS011;38141;42.666;23.344;2023-04-06T09:26:08;11.00;;;9.10;;
3177;SDS011;38141;42.666;23.344;2023-04-06T09:28:45;12.20;;;9.70;;
3177;SDS011;38141;42.666;23.344;2023-04-06T09:31:13;14.00;;;9.40;;
3177;SDS011;38141;42.666;23.344;2023-04-06T09:33:41;10.27;;;8.90;;
3177;SDS011;38141;42.666;23.344;2023-04-06T09:36:10;11.90;;;9.17;;
3177;SDS011;38141;42.666;23.344;2023-04-06T09:38:37;10.20;;;8.60;;
3177;SDS011;38141;42.666;23.344;2023-04-06T09:41:04;12.67;;;9.67;;
3177;SDS011;38141;42.666;23.344;2023-04-06T09:43:33;10.10;;;8.00;;
3177;SDS011;38141;42.666;23.344;2023-04-06T09:46:00;13.20;;;9.00;;
3177;SDS011;38141;42.666;23.344;2023-04-06T09:48:29;10.00;;;8.30;;
3177;SDS011;38141;42.666;23.344;2023-04-06T09:51:17;10.50;;;9.00;;
3177;SDS011;38141;42.666;23.344;2023-04-06T09:53:45;13.40;;;8.80;;
3177;SDS011;38141;42.666;23.344;2023-04-06T09:56:19;9.30;;;7.90;;
3177;SDS011;38141;42.666;23.344;2023-04-06T09:58:52;17.30;;;8.73;;
3177;SDS011;38141;42.666;23.344;2023-04-06T10:01:23;12.80;;;9.30;;
3177;SDS011;38141;42.666;23.344;2023-04-06T10:03:55;10.17;;;8.83;;
3177;SDS011;38141;42.666;23.344;2023-04-06T10:06:31;12.27;;;9.63;;
3177;SDS011;38141;42.666;23.344;2023-04-06T10:09:00;9.63;;;8.63;;
3177;SDS011;38141;42.666;23.344;2023-04-06T10:11:28;11.30;;;9.50;;
3177;SDS011;38141;42.666;23.344;2023-04-06T10:13:58;10.20;;;9.10;;
3177;SDS011;38141;42.666;23.344;2023-04-06T10:16:24;8.60;;;7.70;;
3177;SDS011;38141;42.666;23.344;2023-04-06T10:18:55;9.70;;;8.47;;
3177;SDS011;38141;42.666;23.344;2023-04-06T10:21:25;11.03;;;8.27;;
3177;SDS011;38141;42.666;23.344;2023-04-06T10:23:54;12.10;;;8.93;;
3177;SDS011;38141;42.666;23.344;2023-04-06T10:26:25;10.60;;;9.00;;
3177;SDS011;38141;42.666;23.344;2023-04-06T10:28:51;11.23;;;8.50;;
3177;SDS011;38141;42.666;23.344;2023-04-06T10:31:29;11.67;;;8.80;;
3177;SDS011;38141;42.666;23.344;2023-04-06T10:33:57;11.23;;;8.73;;
3177;SDS011;38141;42.666;23.344;2023-04-06T10:36:24;12.80;;;9.40;;
3177;SDS011;38141;42.666;23.344;2023-04-06T10:38:56;15.60;;;10.00;;
3177;SDS011;38141;42.666;23.344;2023-04-06T10:41:24;14.40;;;9.90;;
3177;SDS011;38141;42.666;23.344;2023-04-06T10:43:58;14.50;;;9.37;;
3177;SDS011;38141;42.666;23.344;2023-04-06T10:46:27;11.93;;;8.67;;
3177;SDS011;38141;42.666;23.344;2023-04-06T10:48:56;14.30;;;9.67;;
3177;SDS011;38141;42.666;23.344;2023-04-06T10:51:26;13.43;;;9.23;;
3177;SDS011;38141;42.666;23.344;2023-04-06T10:53:54;13.57;;;9.83;;
3177;SDS011;38141;42.666;23.344;2023-04-06T10:56:23;15.50;;;10.23;;
3177;SDS011;38141;42.666;23.344;2023-04-06T10:58:53;13.13;;;11.20;;
3177;SDS011;38141;42.666;23.344;2023-04-06T11:01:22;16.20;;;10.80;;
3177;SDS011;38141;42.666;23.344;2023-04-06T11:03:50;13.37;;;10.00;;
3177;SDS011;38141;42.666;23.344;2023-04-06T11:06:20;12.47;;;9.27;;
3177;SDS011;38141;42.666;23.344;2023-04-06T11:08:47;17.13;;;10.83;;
3177;SDS011;38141;42.666;23.344;2023-04-06T11:11:15;11.57;;;9.97;;
3177;SDS011;38141;42.666;23.344;2023-04-06T11:13:44;12.50;;;10.23;;
3177;SDS011;38141;42.666;23.344;2023-04-06T11:16:12;12.27;;;9.67;;
3177;SDS011;38141;42.666;23.344;2023-04-06T11:18:47;14.57;;;10.40;;
3177;SDS011;38141;42.666;23.344;2023-04-06T11:21:15;14.57;;;10.87;;
3177;SDS011;38141;42.666;23.344;2023-04-06T11:23:43;16.80;;;9.90;;
3177;SDS011;38141;42.666;23.344;2023-04-06T11:26:10;10.73;;;9.17;;
3177;SDS011;38141;42.666;23.344;2023-04-06T11:28:38;11.73;;;9.67;;
3177;SDS011;38141;42.666;23.344;2023-04-06T11:31:05;19.13;;;10.47;;
3177;SDS011;38141;42.666;23.344;2023-04-06T11:33:35;12.30;;;9.67;;
3177;SDS011;38141;42.666;23.344;2023-04-06T11:36:02;14.80;;;10.20;;
3177;SDS011;38141;42.666;23.344;2023-04-06T11:38:30;13.67;;;9.43;;
3177;SDS011;38141;42.666;23.344;2023-04-06T11:40:58;13.57;;;9.13;;
3177;SDS011;38141;42.666;23.344;2023-04-06T11:43:27;11.97;;;8.63;;
3177;SDS011;38141;42.666;23.344;2023-04-06T11:45:59;17.73;;;10.13;;
3177;SDS011;38141;42.666;23.344;2023-04-06T11:48:27;12.53;;;9.50;;
3177;SDS011;38141;42.666;23.344;2023-04-06T11:50:57;18.40;;;11.23;;
3177;SDS011;38141;42.666;23.344;2023-04-06T11:53:26;11.33;;;9.63;;
3177;SDS011;38141;42.666;23.344;2023-04-06T11:55:53;13.30;;;10.23;;
3177;SDS011;38141;42.666;23.344;2023-04-06T11:58:21;16.10;;;10.47;;
3177;SDS011;38141;42.666;23.344;2023-04-06T12:00:48;12.90;;;10.20;;
3177;SDS011;38141;42.666;23.344;2023-04-06T12:03:15;14.20;;;9.77;;
3177;SDS011;38141;42.666;23.344;2023-04-06T12:05:43;13.90;;;9.70;;
3177;SDS011;38141;42.666;23.344;2023-04-06T12:08:10;13.47;;;10.30;;
3177;SDS011;38141;42.666;23.344;2023-04-06T12:10:37;13.30;;;10.00;;
3177;SDS011;38141;42.666;23.344;2023-04-06T12:13:03;14.80;;;9.70;;
3177;SDS011;38141;42.666;23.344;2023-04-06T12:15:32;13.17;;;9.70;;
3177;SDS011;38141;42.666;23.344;2023-04-06T12:17:58;20.43;;;10.63;;
3177;SDS011;38141;42.666;23.344;2023-04-06T12:20:25;13.07;;;10.00;;
3177;SDS011;38141;42.666;23.344;2023-04-06T12:22:52;18.10;;;12.80;;
3177;SDS011;38141;42.666;23.344;2023-04-06T12:25:19;12.80;;;9.87;;
3177;SDS011;38141;42.666;23.344;2023-04-06T12:27:46;15.93;;;9.97;;
3177;SDS011;38141;42.666;23.344;2023-04-06T12:30:13;13.50;;;10.20;;
3177;SDS011;38141;42.666;23.344;2023-04-06T12:32:42;14.87;;;9.83;;
3177;SDS011;38141;42.666;23.344;2023-04-06T12:35:08;16.70;;;10.60;;
3177;SDS011;38141;42.666;23.344;2023-04-06T12:37:37;15.40;;;10.83;;
3177;SDS011;38141;42.666;23.344;2023-04-06T12:40:04;15.10;;;10.17;;
3177;SDS011;38141;42.666;23.344;2023-04-06T12:42:32;14.07;;;10.70;;
3177;SDS011;38141;42.666;23.344;2023-04-06T12:45:01;12.80;;;10.00;;
3177;SDS011;38141;42.666;23.344;2023-04-06T12:47:27;14.30;;;9.37;;
3177;SDS011;38141;42.666;23.344;2023-04-06T12:49:56;13.80;;;9.50;;
3177;SDS011;38141;42.666;23.344;2023-04-06T12:52:23;14.53;;;10.83;;
3177;SDS011;38141;42.666;23.344;2023-04-06T12:54:49;13.10;;;9.70;;
3177;SDS011;38141;42.666;23.344;2023-04-06T12:57:16;13.87;;;9.37;;
3177;SDS011;38141;42.666;23.344;2023-04-06T12:59:43;15.93;;;11.00;;
3177;SDS011;38141;42.666;23.344;2023-04-06T13:02:11;14.20;;;10.60;;
3177;SDS011;38141;42.666;23.344;2023-04-06T13:04:38;15.13;;;10.93;;
3177;SDS011;38141;42.666;23.344;2023-04-06T13:07:06;13.30;;;9.73;;
3177;SDS011;38141;42.666;23.344;2023-04-06T13:09:33;14.10;;;9.70;;
3177;SDS011;38141;42.666;23.344;2023-04-06T13:12:00;14.47;;;10.10;;
3177;SDS011;38141;42.666;23.344;2023-04-06T13:14:27;14.80;;;11.23;;
3177;SDS011;38141;42.666;23.344;2023-04-06T13:16:54;12.50;;;10.80;;
3177;SDS011;38141;42.666;23.344;2023-04-06T13:19:20;15.70;;;11.30;;
3177;SDS011;38141;42.666;23.344;2023-04-06T13:21:47;14.50;;;10.60;;
3177;SDS011;38141;42.666;23.344;2023-04-06T13:24:15;12.70;;;9.57;;
3177;SDS011;38141;42.666;23.344;2023-04-06T13:26:42;15.33;;;11.13;;
3177;SDS011;38141;42.666;23.344;2023-04-06T13:29:09;13.73;;;10.40;;
3177;SDS011;38141;42.666;23.344;2023-04-06T13:31:36;15.00;;;10.63;;
3177;SDS011;38141;42.666;23.344;2023-04-06T13:34:03;17.07;;;10.30;;
3177;SDS011;38141;42.666;23.344;2023-04-06T13:36:30;15.27;;;11.60;;
3177;SDS011;38141;42.666;23.344;2023-04-06T13:38:57;14.77;;;11.43;;
3177;SDS011;38141;42.666;23.344;2023-04-06T13:41:26;14.70;;;11.10;;
3177;SDS011;38141;42.666;23.344;2023-04-06T13:43:53;13.57;;;10.20;;
3177;SDS011;38141;42.666;23.344;2023-04-06T13:46:20;12.00;;;9.40;;
3177;SDS011;38141;42.666;23.344;2023-04-06T13:48:48;13.43;;;9.87;;
3177;SDS011;38141;42.666;23.344;2023-04-06T13:51:16;11.57;;;9.53;;
3177;SDS011;38141;42.666;23.344;2023-04-06T13:53:42;12.53;;;9.37;;
3177;SDS011;38141;42.666;23.344;2023-04-06T13:56:09;11.37;;;8.70;;
3177;SDS011;38141;42.666;23.344;2023-04-06T13:58:37;14.37;;;9.73;;
3177;SDS011;38141;42.666;23.344;2023-04-06T14:01:04;13.73;;;9.70;;
3177;SDS011;38141;42.666;23.344;2023-04-06T14:03:32;15.13;;;9.30;;
3177;SDS011;38141;42.666;23.344;2023-04-06T14:05:59;13.53;;;9.53;;
3177;SDS011;38141;42.666;23.344;2023-04-06T14:08:26;12.97;;;10.00;;
3177;SDS011;38141;42.666;23.344;2023-04-06T14:10:52;16.87;;;10.60;;
3177;SDS011;38141;42.666;23.344;2023-04-06T14:13:20;14.77;;;10.50;;
3177;SDS011;38141;42.666;23.344;2023-04-06T14:15:53;13.10;;;9.77;;
3177;SDS011;38141;42.666;23.344;2023-04-06T14:18:20;12.93;;;9.97;;
3177;SDS011;38141;42.666;23.344;2023-04-06T14:20:53;10.63;;;8.60;;
3177;SDS011;38141;42.666;23.344;2023-04-06T14:23:20;13.40;;;9.30;;
3177;SDS011;38141;42.666;23.344;2023-04-06T14:25:47;14.37;;;9.13;;
3177;SDS011;38141;42.666;23.344;2023-04-06T14:28:14;13.40;;;9.83;;
3177;SDS011;38141;42.666;23.344;2023-04-06T14:30:41;12.20;;;8.63;;
3177;SDS011;38141;42.666;23.344;2023-04-06T14:33:09;13.70;;;8.70;;